Time;durP1;ratioP1;P1;durP2;ratioP2;P2;SDS_P1;SDS_P2;PMS_P1;PMS_P2;Temp;Humidity;BMP_temperature;BMP_pressure;BME280_temperature;BME280_humidity;BME280_pressure;Samples;Min_cycle;Max_cycle;Signal;HPM_P1;HPM_P2
2022/07/31 00:00:50;;;;;;;5.80;5.37;;;;;;;;;;5031095;28;20210;-76
2022/07/31 00:03:17;;;;;;;5.50;5.20;;;;;;;;;;5031378;28;20256;-76
2022/07/31 00:09:06;;;;;;;6.33;5.73;;;;;;;;;;5031578;28;20593;-76
2022/07/31 00:11:33;;;;;;;8.93;6.47;;;;;;;;;;5029810;28;20209;-76
2022/07/31 00:14:01;;;;;;;6.27;5.73;;;;;;;;;;5014092;28;20730;-76
2022/07/31 00:16:28;;;;;;;5.63;5.13;;;;;;;;;;5032504;28;20801;-76
2022/07/31 00:18:56;;;;;;;6.10;5.50;;;;;;;;;;5000901;28;20213;-76
2022/07/31 00:21:23;;;;;;;6.23;5.80;;;;;;;;;;5017058;28;20276;-75
2022/07/31 00:23:50;;;;;;;6.60;6.03;;;;;;;;;;5034295;28;20258;-75
2022/07/31 00:26:17;;;;;;;6.23;5.53;;;;;;;;;;5017176;28;20619;-75
2022/07/31 00:28:44;;;;;;;6.97;5.90;;;;;;;;;;5034505;28;20198;-75
2022/07/31 00:31:12;;;;;;;5.60;5.20;;;;;;;;;;5033326;28;20202;-75
2022/07/31 00:33:39;;;;;;;6.53;5.93;;;;;;;;;;5034839;28;20195;-75
2022/07/31 00:36:07;;;;;;;6.53;5.97;;;;;;;;;;5033483;28;20199;-75
2022/07/31 00:38:34;;;;;;;6.57;6.07;;;;;;;;;;5033419;28;20203;-75
2022/07/31 00:41:02;;;;;;;5.57;5.17;;;;;;;;;;5034702;28;20203;-75
2022/07/31 00:43:29;;;;;;;6.67;6.07;;;;;;;;;;5032870;28;20202;-74
2022/07/31 00:45:56;;;;;;;6.37;5.87;;;;;;;;;;5034557;28;20233;-75
2022/07/31 00:48:25;;;;;;;6.40;5.77;;;;;;;;;;5034423;28;20194;-75
2022/07/31 00:50:52;;;;;;;6.43;5.83;;;;;;;;;;5033917;28;20253;-75
2022/07/31 00:53:19;;;;;;;7.03;6.43;;;;;;;;;;5032901;28;20665;-75
2022/07/31 00:55:46;;;;;;;6.57;6.07;;;;;;;;;;5033875;28;20202;-75
2022/07/31 00:58:13;;;;;;;6.83;6.23;;;;;;;;;;5032966;28;20199;-75
2022/07/31 01:00:40;;;;;;;6.67;5.73;;;;;;;;;;5032994;28;20199;-75
2022/07/31 01:06:30;;;;;;;6.07;5.53;;;;;;;;;;5034541;28;20185;-75
2022/07/31 01:08:57;;;;;;;6.57;6.07;;;;;;;;;;5016271;28;20268;-76
2022/07/31 01:11:30;;;;;;;6.23;5.73;;;;;;;;;;5016412;28;20199;-75
2022/07/31 01:13:59;;;;;;;5.77;5.30;;;;;;;;;;5033629;28;20198;-76
2022/07/31 01:16:29;;;;;;;7.30;5.57;;;;;;;;;;5033734;28;20668;-76
2022/07/31 01:18:56;;;;;;;6.63;6.03;;;;;;;;;;5033966;28;20203;-75
2022/07/31 01:21:28;;;;;;;6.10;5.60;;;;;;;;;;5033699;28;20223;-76
2022/07/31 01:27:27;;;;;;;6.23;5.73;;;;;;;;;;5097647;27;1541866;-77
2022/07/31 01:29:57;;;;;;;7.10;5.90;;;;;;;;;;5111789;28;20198;-76
2022/07/31 01:32:30;;;;;;;6.93;6.23;;;;;;;;;;5130353;28;20195;-76
2022/07/31 01:35:01;;;;;;;5.87;5.37;;;;;;;;;;5130529;28;20194;-77
2022/07/31 01:37:31;;;;;;;7.13;6.53;;;;;;;;;;5129610;28;20194;-77
2022/07/31 01:40:02;;;;;;;6.20;5.80;;;;;;;;;;5129683;28;20708;-77
2022/07/31 01:42:30;;;;;;;5.47;5.07;;;;;;;;;;5129884;28;20240;-77
2022/07/31 01:45:00;;;;;;;6.30;5.80;;;;;;;;;;5111732;28;20252;-77
2022/07/31 01:47:28;;;;;;;5.83;5.40;;;;;;;;;;5129233;28;20285;-77
2022/07/31 01:49:57;;;;;;;6.47;5.97;;;;;;;;;;5111872;28;20199;-77
2022/07/31 01:52:26;;;;;;;6.07;5.57;;;;;;;;;;5111464;28;20248;-77
2022/07/31 01:54:54;;;;;;;6.90;6.20;;;;;;;;;;5129501;28;20190;-77
2022/07/31 01:57:23;;;;;;;7.13;6.23;;;;;;;;;;5129406;28;20202;-76
2022/07/31 01:59:52;;;;;;;6.50;5.93;;;;;;;;;;5129535;28;20195;-76
2022/07/31 02:02:21;;;;;;;5.80;5.30;;;;;;;;;;5129471;28;20191;-76
2022/07/31 02:04:48;;;;;;;6.37;5.87;;;;;;;;;;5129226;28;20210;-76
2022/07/31 02:07:15;;;;;;;6.10;5.70;;;;;;;;;;5129570;28;20588;-77
2022/07/31 02:09:43;;;;;;;6.20;5.60;;;;;;;;;;5129805;28;20203;-77
2022/07/31 02:12:10;;;;;;;6.57;6.07;;;;;;;;;;5110992;28;20256;-76
2022/07/31 02:14:39;;;;;;;6.60;6.10;;;;;;;;;;5110959;28;20289;-76
2022/07/31 02:17:07;;;;;;;7.47;5.60;;;;;;;;;;5128976;28;20199;-76
2022/07/31 02:19:36;;;;;;;6.07;5.63;;;;;;;;;;5129064;28;20202;-76
2022/07/31 02:22:04;;;;;;;6.67;5.73;;;;;;;;;;5129495;28;20577;-76
2022/07/31 02:24:31;;;;;;;5.60;5.20;;;;;;;;;;5110991;28;20206;-76
2022/07/31 02:26:59;;;;;;;5.73;5.30;;;;;;;;;;5128901;28;20604;-76
2022/07/31 02:29:27;;;;;;;6.00;5.50;;;;;;;;;;5110441;28;20625;-76
2022/07/31 02:31:55;;;;;;;6.33;5.53;;;;;;;;;;5111459;28;20601;-77
2022/07/31 02:34:23;;;;;;;7.47;5.70;;;;;;;;;;5110682;28;20207;-76
2022/07/31 02:36:52;;;;;;;6.73;5.93;;;;;;;;;;5125428;28;20202;-76
2022/07/31 02:39:20;;;;;;;6.40;5.83;;;;;;;;;;5114986;28;20669;-76
2022/07/31 02:41:48;;;;;;;5.90;5.40;;;;;;;;;;5096919;28;20202;-76
2022/07/31 02:44:16;;;;;;;5.97;5.47;;;;;;;;;;5115453;28;20196;-76
2022/07/31 02:46:44;;;;;;;5.37;4.93;;;;;;;;;;5114773;28;20701;-77
2022/07/31 02:49:13;;;;;;;7.13;6.50;;;;;;;;;;5114830;28;20226;-77
2022/07/31 02:51:40;;;;;;;6.10;5.60;;;;;;;;;;5115370;28;20199;-77
2022/07/31 02:54:09;;;;;;;6.33;5.67;;;;;;;;;;5079162;28;20196;-76
2022/07/31 02:56:36;;;;;;;6.00;5.60;;;;;;;;;;5094269;28;20196;-77
2022/07/31 02:59:04;;;;;;;5.77;5.27;;;;;;;;;;5076636;28;20196;-77
2022/07/31 03:01:34;;;;;;;6.23;5.80;;;;;;;;;;5094479;28;20192;-77
2022/07/31 03:04:01;;;;;;;8.87;5.47;;;;;;;;;;5095357;28;20246;-77
2022/07/31 03:06:28;;;;;;;7.07;5.63;;;;;;;;;;5093931;28;20238;-77
2022/07/31 03:08:55;;;;;;;6.47;5.67;;;;;;;;;;5076286;28;20200;-77
2022/07/31 03:11:24;;;;;;;6.00;5.50;;;;;;;;;;5093887;28;20200;-77
2022/07/31 03:13:53;;;;;;;6.73;6.03;;;;;;;;;;5093967;28;20563;-77
2022/07/31 03:16:21;;;;;;;6.13;5.53;;;;;;;;;;5075841;28;20296;-77
2022/07/31 03:18:48;;;;;;;9.23;5.83;;;;;;;;;;5094409;28;20223;-77
2022/07/31 03:21:16;;;;;;;6.17;5.67;;;;;;;;;;5094071;28;20664;-77
2022/07/31 03:23:43;;;;;;;6.43;5.97;;;;;;;;;;5075790;28;20207;-77
2022/07/31 03:26:10;;;;;;;6.10;5.60;;;;;;;;;;5075598;28;20232;-76
2022/07/31 03:28:39;;;;;;;8.37;6.47;;;;;;;;;;5090892;28;20276;-77
2022/07/31 03:31:06;;;;;;;6.57;5.97;;;;;;;;;;5100735;28;20189;-76
2022/07/31 03:33:33;;;;;;;7.30;6.60;;;;;;;;;;5098318;28;20290;-76
2022/07/31 03:36:01;;;;;;;6.97;6.40;;;;;;;;;;5113793;28;20203;-76
2022/07/31 03:38:28;;;;;;;7.47;6.33;;;;;;;;;;5098931;28;20196;-76
2022/07/31 03:41:01;;;;;;;7.00;6.30;;;;;;;;;;5098429;28;20196;-75
2022/07/31 03:43:29;;;;;;;6.87;6.23;;;;;;;;;;5096697;28;20652;-76
2022/07/31 03:45:58;;;;;;;7.00;6.50;;;;;;;;;;5103299;28;20219;-76
2022/07/31 03:51:48;;;;;;;7.73;6.97;;;;;;;;;;5093655;28;20264;-76
2022/07/31 03:54:15;;;;;;;6.33;5.83;;;;;;;;;;5058558;28;20203;-76
2022/07/31 03:56:44;;;;;;;6.60;5.97;;;;;;;;;;5093634;28;20200;-76
2022/07/31 03:59:11;;;;;;;5.30;4.90;;;;;;;;;;5074595;28;20196;-76
2022/07/31 04:01:39;;;;;;;6.10;5.50;;;;;;;;;;5093416;28;20219;-77
2022/07/31 04:04:06;;;;;;;7.33;6.77;;;;;;;;;;5093429;28;20200;-76
2022/07/31 04:06:33;;;;;;;6.97;6.40;;;;;;;;;;5092898;28;20834;-76
2022/07/31 04:09:01;;;;;;;6.67;6.17;;;;;;;;;;5075011;28;20587;-76
2022/07/31 04:11:28;;;;;;;6.70;6.20;;;;;;;;;;5093780;28;20223;-77
2022/07/31 04:13:55;;;;;;;10.10;5.70;;;;;;;;;;5086888;28;20214;-77
2022/07/31 04:16:22;;;;;;;7.40;6.77;;;;;;;;;;5104296;28;20195;-77
2022/07/31 04:18:51;;;;;;;7.47;6.80;;;;;;;;;;5104880;28;20196;-76
2022/07/31 04:21:18;;;;;;;6.73;6.23;;;;;;;;;;5093963;28;20207;-76
2022/07/31 04:23:45;;;;;;;7.10;6.43;;;;;;;;;;5092920;28;20196;-76
2022/07/31 04:26:12;;;;;;;7.00;6.40;;;;;;;;;;5101968;28;20227;-77
2022/07/31 04:28:39;;;;;;;7.37;6.77;;;;;;;;;;5080540;28;20200;-77
2022/07/31 04:31:06;;;;;;;7.33;6.73;;;;;;;;;;5080761;28;20188;-76
2022/07/31 04:33:33;;;;;;;7.00;5.83;;;;;;;;;;5067557;28;20212;-76
2022/07/31 04:36:02;;;;;;;7.33;6.80;;;;;;;;;;5090890;28;20601;-77
2022/07/31 04:38:29;;;;;;;7.10;6.50;;;;;;;;;;5089010;28;20235;-77
2022/07/31 04:40:56;;;;;;;6.40;5.90;;;;;;;;;;5070379;28;20645;-77
2022/07/31 04:43:23;;;;;;;6.17;5.67;;;;;;;;;;5074266;28;20199;-77
2022/07/31 04:45:50;;;;;;;7.00;6.30;;;;;;;;;;5071915;28;20188;-77
2022/07/31 04:48:17;;;;;;;6.63;6.03;;;;;;;;;;5107171;28;20227;-77
2022/07/31 04:50:44;;;;;;;7.03;6.33;;;;;;;;;;5111064;28;20206;-77
2022/07/31 04:53:13;;;;;;;7.40;6.60;;;;;;;;;;5098589;28;20200;-77
2022/07/31 04:55:40;;;;;;;6.30;5.80;;;;;;;;;;5092923;28;20200;-76
2022/07/31 04:58:07;;;;;;;6.10;5.43;;;;;;;;;;5057489;28;20196;-76
2022/07/31 05:00:33;;;;;;;6.00;5.50;;;;;;;;;;5092388;28;20200;-78
2022/07/31 05:03:01;;;;;;;6.30;5.83;;;;;;;;;;5091712;28;20200;-77
2022/07/31 05:05:28;;;;;;;6.57;6.07;;;;;;;;;;5073916;28;20240;-78
2022/07/31 05:07:55;;;;;;;7.63;6.93;;;;;;;;;;5080680;28;20249;-80
2022/07/31 05:13:09;;;;;;;6.13;5.73;;;;;;;;;;5109724;28;20297;-79
2022/07/31 05:15:36;;;;;;;5.50;5.10;;;;;;;;;;5080434;27;20276;-78
2022/07/31 05:18:06;;;;;;;7.70;7.10;;;;;;;;;;5103684;28;20204;-80
2022/07/31 05:20:33;;;;;;;5.67;5.23;;;;;;;;;;5101469;28;20693;-79
2022/07/31 05:23:00;;;;;;;6.93;6.30;;;;;;;;;;5093849;28;20269;-80
2022/07/31 05:25:29;;;;;;;6.23;5.80;;;;;;;;;;5079414;28;20200;-81
2022/07/31 05:27:56;;;;;;;6.40;5.90;;;;;;;;;;5082530;28;20226;-84
2022/07/31 05:30:25;;;;;;;6.70;6.27;;;;;;;;;;5104801;28;20238;-80
2022/07/31 05:32:54;;;;;;;6.40;5.90;;;;;;;;;;5071984;28;20192;-79
2022/07/31 05:35:21;;;;;;;7.07;6.57;;;;;;;;;;5067112;28;20208;-78
2022/07/31 05:37:49;;;;;;;6.20;5.80;;;;;;;;;;5094853;28;20183;-79
2022/07/31 05:40:17;;;;;;;9.60;7.67;;;;;;;;;;5081159;28;20684;-77
2022/07/31 05:42:46;;;;;;;6.70;6.27;;;;;;;;;;5079164;28;20204;-85
2022/07/31 05:45:13;;;;;;;6.17;5.77;;;;;;;;;;5072478;28;20611;-87
2022/07/31 05:47:41;;;;;;;8.03;6.50;;;;;;;;;;5076843;28;20219;-77
2022/07/31 05:50:09;;;;;;;7.50;6.23;;;;;;;;;;5091982;28;20195;-78
2022/07/31 05:52:36;;;;;;;6.63;6.13;;;;;;;;;;5090396;28;20191;-76
2022/07/31 05:55:03;;;;;;;10.30;6.43;;;;;;;;;;5078452;28;20192;-83
2022/07/31 05:57:30;;;;;;;7.57;6.97;;;;;;;;;;5079142;28;20206;-79
2022/07/31 06:00:01;;;;;;;6.47;6.00;;;;;;;;;;5112783;28;20196;-78
2022/07/31 06:02:28;;;;;;;6.07;5.63;;;;;;;;;;5094039;28;20215;-76
2022/07/31 06:04:55;;;;;;;5.77;5.37;;;;;;;;;;5111878;28;20192;-77
2022/07/31 06:07:22;;;;;;;6.43;5.93;;;;;;;;;;5056627;28;20281;-79
2022/07/31 06:09:49;;;;;;;5.17;4.83;;;;;;;;;;5097813;28;20666;-77
2022/07/31 06:12:16;;;;;;;4.97;4.50;;;;;;;;;;5104505;28;20222;-78
2022/07/31 06:14:44;;;;;;;4.43;4.13;;;;;;;;;;5074486;28;20203;-75
2022/07/31 06:17:13;;;;;;;3.63;3.43;;;;;;;;;;5114651;28;20214;-78
2022/07/31 06:19:40;;;;;;;4.67;4.27;;;;;;;;;;5088997;28;20244;-85
2022/07/31 06:25:28;;;;;;;3.40;3.20;;;;;;;;;;5092755;28;20568;-77
2022/07/31 06:27:56;;;;;;;3.03;2.83;;;;;;;;;;5054095;28;20217;-78
2022/07/31 06:30:23;;;;;;;3.27;2.97;;;;;;;;;;5074207;28;20197;-78
2022/07/31 06:32:51;;;;;;;3.50;3.13;;;;;;;;;;5062126;28;20196;-78
2022/07/31 06:35:19;;;;;;;3.50;3.27;;;;;;;;;;5073869;28;20528;-78
2022/07/31 06:37:46;;;;;;;3.40;3.10;;;;;;;;;;5039054;28;21138;-78
2022/07/31 06:40:13;;;;;;;3.57;3.27;;;;;;;;;;5073748;28;20201;-78
2022/07/31 06:42:41;;;;;;;4.03;3.63;;;;;;;;;;5088881;28;20278;-78
2022/07/31 06:45:10;;;;;;;6.70;4.17;;;;;;;;;;5060598;28;20200;-79
2022/07/31 06:47:37;;;;;;;4.40;2.87;;;;;;;;;;5074872;28;20220;-79
2022/07/31 06:50:07;;;;;;;3.77;3.27;;;;;;;;;;5076638;28;20203;-86
2022/07/31 06:52:35;;;;;;;3.60;3.33;;;;;;;;;;5076449;28;20208;-86
2022/07/31 06:55:02;;;;;;;3.47;3.17;;;;;;;;;;5067502;28;20201;-85
2022/07/31 06:57:29;;;;;;;3.50;3.28;;;;;;;;;;5080101;28;20711;-86
2022/07/31 06:59:56;;;;;;;3.40;3.10;;;;;;;;;;5054970;28;20205;-86
2022/07/31 07:02:24;;;;;;;4.00;3.70;;;;;;;;;;5058579;28;20205;-85
2022/07/31 07:04:51;;;;;;;2.95;2.75;;;;;;;;;;5084729;28;20206;-85
2022/07/31 07:07:21;;;;;;;3.30;3.00;;;;;;;;;;5114353;28;20685;-86
2022/07/31 07:09:48;;;;;;;3.45;3.25;;;;;;;;;;5105188;28;20196;-86
2022/07/31 07:12:15;;;;;;;4.18;2.90;;;;;;;;;;5093949;28;20207;-85
2022/07/31 07:14:42;;;;;;;3.92;3.58;;;;;;;;;;5093625;28;20674;-83
2022/07/31 07:17:09;;;;;;;3.25;3.05;;;;;;;;;;5074166;28;20209;-85
2022/07/31 07:19:39;;;;;;;3.67;3.47;;;;;;;;;;5092754;28;20247;-86
2022/07/31 07:22:06;;;;;;;3.20;3.00;;;;;;;;;;5085352;28;20743;-85
2022/07/31 07:24:35;;;;;;;3.90;3.47;;;;;;;;;;5054475;28;20212;-86
2022/07/31 07:27:02;;;;;;;3.97;3.67;;;;;;;;;;5059132;28;20650;-86
2022/07/31 07:29:29;;;;;;;4.00;3.53;;;;;;;;;;5064444;28;20196;-85
2022/07/31 07:31:59;;;;;;;4.70;4.07;;;;;;;;;;5073431;28;20215;-86
2022/07/31 07:34:26;;;;;;;4.05;3.65;;;;;;;;;;5073543;28;20201;-85
2022/07/31 07:36:54;;;;;;;3.90;3.50;;;;;;;;;;5071794;28;20232;-84
2022/07/31 07:39:20;;;;;;;4.33;4.00;;;;;;;;;;5080392;28;20205;-86
2022/07/31 07:41:48;;;;;;;4.03;3.72;;;;;;;;;;5072412;28;20663;-85
2022/07/31 07:44:15;;;;;;;5.43;4.90;;;;;;;;;;5076960;28;20204;-85
2022/07/31 07:46:42;;;;;;;5.03;4.72;;;;;;;;;;5082988;28;20258;-85
2022/07/31 07:49:09;;;;;;;3.95;3.55;;;;;;;;;;5056792;28;20232;-81
2022/07/31 07:51:36;;;;;;;7.10;6.50;;;;;;;;;;5074801;28;20283;-82
2022/07/31 07:54:03;;;;;;;5.00;4.50;;;;;;;;;;5089978;28;20200;-81
2022/07/31 07:56:29;;;;;;;5.07;4.60;;;;;;;;;;5093202;28;20659;-80
2022/07/31 07:58:58;;;;;;;9.35;8.20;;;;;;;;;;5093050;28;20678;-81
2022/07/31 08:01:25;;;;;;;4.93;4.53;;;;;;;;;;5080754;28;20196;-80
2022/07/31 08:03:52;;;;;;;4.00;3.70;;;;;;;;;;5093236;28;20283;-80
2022/07/31 08:06:20;;;;;;;4.05;3.70;;;;;;;;;;5087726;28;20662;-81
2022/07/31 08:08:47;;;;;;;4.57;3.92;;;;;;;;;;5073904;28;20224;-81
2022/07/31 08:11:14;;;;;;;7.35;4.22;;;;;;;;;;5079302;28;20192;-81
2022/07/31 08:13:41;;;;;;;5.40;5.00;;;;;;;;;;5082721;28;20271;-81
2022/07/31 08:16:09;;;;;;;4.43;4.03;;;;;;;;;;5072116;28;20205;-80
2022/07/31 08:18:36;;;;;;;3.75;3.45;;;;;;;;;;5075104;28;20197;-81
2022/07/31 08:21:04;;;;;;;5.30;4.15;;;;;;;;;;5087052;28;20192;-81
2022/07/31 08:23:31;;;;;;;3.90;3.60;;;;;;;;;;5073551;28;20205;-81
2022/07/31 08:25:58;;;;;;;5.93;3.47;;;;;;;;;;5080798;28;20232;-85
2022/07/31 08:28:25;;;;;;;3.78;3.22;;;;;;;;;;5070550;28;20215;-81
2022/07/31 08:30:53;;;;;;;3.92;3.60;;;;;;;;;;5038450;28;20291;-80
2022/07/31 08:33:22;;;;;;;3.47;3.28;;;;;;;;;;5054442;28;20219;-82
2022/07/31 08:35:49;;;;;;;4.00;3.70;;;;;;;;;;5076665;28;20195;-79
2022/07/31 08:38:18;;;;;;;3.88;3.58;;;;;;;;;;5092541;28;20195;-80
2022/07/31 08:40:45;;;;;;;3.65;3.35;;;;;;;;;;5091235;28;20239;-80
2022/07/31 08:43:12;;;;;;;3.97;3.67;;;;;;;;;;5082015;28;20667;-80
2022/07/31 08:45:40;;;;;;;3.92;3.63;;;;;;;;;;5071758;28;20545;-80
2022/07/31 08:48:09;;;;;;;4.43;4.03;;;;;;;;;;5083361;28;20709;-80
2022/07/31 08:50:38;;;;;;;3.83;3.63;;;;;;;;;;5092126;28;20196;-80
2022/07/31 08:53:06;;;;;;;5.35;3.97;;;;;;;;;;5067147;28;20197;-80
2022/07/31 08:55:33;;;;;;;3.40;3.20;;;;;;;;;;5072459;28;20197;-80
2022/07/31 08:58:00;;;;;;;4.53;4.10;;;;;;;;;;5071811;28;20207;-79
2022/07/31 09:00:27;;;;;;;4.13;3.83;;;;;;;;;;5071624;28;20204;-81
2022/07/31 09:02:54;;;;;;;3.78;3.47;;;;;;;;;;5072546;28;20205;-80
2022/07/31 09:05:21;;;;;;;5.95;5.55;;;;;;;;;;5086158;28;20577;-80
2022/07/31 09:07:49;;;;;;;4.57;4.13;;;;;;;;;;5091924;28;20759;-80
2022/07/31 09:10:24;;;;;;;4.22;3.92;;;;;;;;;;5091807;28;20200;-80
2022/07/31 09:12:51;;;;;;;4.45;3.70;;;;;;;;;;5091750;28;20204;-80
2022/07/31 09:15:24;;;;;;;4.97;4.00;;;;;;;;;;5091804;28;20200;-79
2022/07/31 09:17:52;;;;;;;4.00;3.70;;;;;;;;;;5091755;28;20200;-80
2022/07/31 09:20:20;;;;;;;4.85;4.45;;;;;;;;;;5091020;28;20562;-80
2022/07/31 09:22:52;;;;;;;3.75;3.45;;;;;;;;;;5091810;28;20204;-79
2022/07/31 09:25:19;;;;;;;3.72;3.53;;;;;;;;;;5088665;28;20192;-80
2022/07/31 09:27:47;;;;;;;3.85;3.55;;;;;;;;;;5077109;28;20224;-80
2022/07/31 09:30:14;;;;;;;5.00;4.00;;;;;;;;;;5091179;28;20206;-81
2022/07/31 09:32:44;;;;;;;3.60;3.40;;;;;;;;;;5071092;28;20205;-82
2022/07/31 09:35:12;;;;;;;4.65;4.35;;;;;;;;;;5071871;28;20197;-80
2022/07/31 09:37:39;;;;;;;3.60;3.40;;;;;;;;;;5071382;28;20204;-80
2022/07/31 09:40:09;;;;;;;3.88;3.58;;;;;;;;;;5085184;28;20199;-83
2022/07/31 09:42:37;;;;;;;4.10;3.90;;;;;;;;;;5091498;28;20203;-80
2022/07/31 09:45:15;;;;;;;3.42;3.22;;;;;;;;;;5092417;28;20196;-80
2022/07/31 09:47:42;;;;;;;6.43;4.72;;;;;;;;;;5093535;28;20201;-80
2022/07/31 09:50:12;;;;;;;3.88;3.58;;;;;;;;;;5093385;28;20224;-80
2022/07/31 09:52:39;;;;;;;3.95;3.65;;;;;;;;;;5075126;28;20207;-81
2022/07/31 09:55:10;;;;;;;3.55;3.35;;;;;;;;;;5074347;28;20266;-81
2022/07/31 09:57:38;;;;;;;4.18;3.65;;;;;;;;;;5076014;28;20204;-81
2022/07/31 10:00:07;;;;;;;5.00;4.00;;;;;;;;;;5075107;28;20197;-81
2022/07/31 10:02:35;;;;;;;3.40;3.20;;;;;;;;;;5075795;28;20196;-80
2022/07/31 10:05:04;;;;;;;4.15;3.85;;;;;;;;;;5075408;28;20196;-80
2022/07/31 10:07:34;;;;;;;4.10;3.80;;;;;;;;;;5074822;28;20283;-81
2022/07/31 10:10:02;;;;;;;4.18;3.78;;;;;;;;;;5034311;28;20220;-80
2022/07/31 10:12:44;;;;;;;3.42;3.13;;;;;;;;;;5090038;28;20227;-79
2022/07/31 10:15:13;;;;;;;3.70;3.50;;;;;;;;;;5080849;28;20220;-80
2022/07/31 10:17:43;;;;;;;3.65;3.35;;;;;;;;;;5076875;28;20612;-80
2022/07/31 10:20:16;;;;;;;4.28;3.95;;;;;;;;;;5076188;28;20200;-80
2022/07/31 10:22:44;;;;;;;3.55;3.35;;;;;;;;;;5078219;28;20231;-81
2022/07/31 10:25:19;;;;;;;3.83;3.60;;;;;;;;;;5072457;28;20200;-80
2022/07/31 10:27:48;;;;;;;3.75;3.45;;;;;;;;;;5057151;28;20228;-80
2022/07/31 10:30:15;;;;;;;3.85;3.60;;;;;;;;;;5083083;28;20253;-81
2022/07/31 10:32:43;;;;;;;4.18;3.85;;;;;;;;;;5094285;28;20199;-81
2022/07/31 10:35:10;;;;;;;4.20;3.40;;;;;;;;;;5086439;28;20208;-80
2022/07/31 10:37:43;;;;;;;3.72;3.53;;;;;;;;;;5073509;28;20258;-81
2022/07/31 10:40:17;;;;;;;4.40;3.85;;;;;;;;;;5074353;28;20201;-81
2022/07/31 10:42:48;;;;;;;4.10;3.80;;;;;;;;;;5077035;28;20201;-81
2022/07/31 10:45:16;;;;;;;4.07;3.80;;;;;;;;;;5078395;28;20207;-81
2022/07/31 10:47:54;;;;;;;4.20;3.90;;;;;;;;;;5072847;28;20228;-81
2022/07/31 10:50:21;;;;;;;3.85;3.55;;;;;;;;;;5080657;28;20212;-81
2022/07/31 10:52:48;;;;;;;4.13;3.80;;;;;;;;;;5084651;28;20665;-80
2022/07/31 10:55:17;;;;;;;4.28;3.97;;;;;;;;;;5071170;28;20230;-81
2022/07/31 10:57:43;;;;;;;3.75;3.45;;;;;;;;;;5087516;28;20200;-80
2022/07/31 11:00:13;;;;;;;5.30;4.80;;;;;;;;;;5084294;28;20194;-81
2022/07/31 11:02:41;;;;;;;3.97;3.60;;;;;;;;;;5088855;28;20682;-80
2022/07/31 11:05:13;;;;;;;4.20;3.88;;;;;;;;;;5073591;28;20201;-80
2022/07/31 11:07:40;;;;;;;3.95;3.65;;;;;;;;;;5073125;28;20220;-81
2022/07/31 11:10:15;;;;;;;3.80;3.60;;;;;;;;;;5073048;28;20220;-80
2022/07/31 11:12:42;;;;;;;4.20;3.90;;;;;;;;;;5079996;28;20199;-80
2022/07/31 11:15:21;;;;;;;4.82;3.42;;;;;;;;;;5089535;28;20204;-83
2022/07/31 11:17:49;;;;;;;3.90;3.60;;;;;;;;;;5080767;28;20192;-81
2022/07/31 11:20:24;;;;;;;4.68;4.18;;;;;;;;;;5072741;28;20744;-80
2022/07/31 11:22:58;;;;;;;4.10;3.80;;;;;;;;;;5073283;28;20712;-79
2022/07/31 11:25:28;;;;;;;4.28;3.95;;;;;;;;;;5072676;28;20231;-80
2022/07/31 11:27:55;;;;;;;5.22;4.82;;;;;;;;;;5078205;28;20713;-80
2022/07/31 11:30:23;;;;;;;4.30;4.00;;;;;;;;;;5074233;28;20224;-80
2022/07/31 11:32:51;;;;;;;4.65;4.35;;;;;;;;;;5092908;28;20196;-80
2022/07/31 11:35:25;;;;;;;4.00;3.70;;;;;;;;;;5075373;28;20585;-80
2022/07/31 11:37:52;;;;;;;4.72;4.35;;;;;;;;;;5072506;28;20661;-80
2022/07/31 11:40:19;;;;;;;4.47;4.10;;;;;;;;;;5088195;28;20200;-79
2022/07/31 11:42:48;;;;;;;4.22;3.90;;;;;;;;;;5075936;28;20201;-80
2022/07/31 11:45:15;;;;;;;4.82;4.43;;;;;;;;;;5072860;28;20197;-79
2022/07/31 11:47:44;;;;;;;4.47;4.18;;;;;;;;;;5088835;28;20197;-80
2022/07/31 11:50:12;;;;;;;4.70;4.30;;;;;;;;;;5080119;28;20213;-81
2022/07/31 11:52:42;;;;;;;4.75;4.45;;;;;;;;;;5072568;28;20196;-80
2022/07/31 11:55:10;;;;;;;4.70;4.32;;;;;;;;;;5072930;28;20205;-81
2022/07/31 11:57:37;;;;;;;7.43;4.68;;;;;;;;;;5073817;28;20685;-75
2022/07/31 12:00:07;;;;;;;5.05;4.65;;;;;;;;;;5073668;28;20798;-81
2022/07/31 12:02:34;;;;;;;4.50;4.20;;;;;;;;;;5070821;28;20197;-83
2022/07/31 12:05:04;;;;;;;4.60;4.30;;;;;;;;;;5070688;28;20200;-83
2022/07/31 12:07:31;;;;;;;5.30;4.90;;;;;;;;;;5078985;28;20208;-83
2022/07/31 12:09:58;;;;;;;4.57;4.20;;;;;;;;;;5073808;28;20216;-82
2022/07/31 12:12:25;;;;;;;13.20;4.78;;;;;;;;;;5070695;28;20197;-81
2022/07/31 12:14:52;;;;;;;4.95;4.07;;;;;;;;;;5070670;28;20193;-81
2022/07/31 12:17:21;;;;;;;4.47;4.18;;;;;;;;;;5077229;28;20195;-81
2022/07/31 12:19:48;;;;;;;5.18;4.68;;;;;;;;;;5090546;28;20208;-82
2022/07/31 12:22:18;;;;;;;4.72;4.43;;;;;;;;;;5090695;28;20196;-81
2022/07/31 12:24:46;;;;;;;4.80;4.50;;;;;;;;;;5079509;28;20246;-81
2022/07/31 12:27:15;;;;;;;5.22;4.72;;;;;;;;;;5069710;28;20260;-81
2022/07/31 12:29:42;;;;;;;4.97;4.57;;;;;;;;;;5082828;28;20223;-81
2022/07/31 12:32:09;;;;;;;5.80;5.40;;;;;;;;;;5081808;28;20197;-84
2022/07/31 12:34:39;;;;;;;5.75;5.35;;;;;;;;;;5059844;28;20223;-81
2022/07/31 12:37:07;;;;;;;5.90;5.07;;;;;;;;;;5069575;28;20258;-86
2022/07/31 12:39:38;;;;;;;6.03;5.45;;;;;;;;;;5075118;28;20200;-84
2022/07/31 12:42:05;;;;;;;5.43;4.93;;;;;;;;;;5063462;28;20666;-81
2022/07/31 12:44:32;;;;;;;5.13;4.72;;;;;;;;;;5086554;28;20193;-85
2022/07/31 12:47:00;;;;;;;5.63;5.20;;;;;;;;;;5069671;28;20197;-81
2022/07/31 12:49:27;;;;;;;5.72;5.20;;;;;;;;;;5069855;28;20658;-81
2022/07/31 12:51:54;;;;;;;5.20;4.80;;;;;;;;;;5080703;28;20196;-82
2022/07/31 12:54:21;;;;;;;5.55;4.90;;;;;;;;;;5066069;28;20192;-81
2022/07/31 12:56:50;;;;;;;5.85;5.45;;;;;;;;;;5089665;28;20685;-81
2022/07/31 12:59:17;;;;;;;4.95;4.65;;;;;;;;;;5077449;28;20201;-82
2022/07/31 13:01:44;;;;;;;5.45;5.05;;;;;;;;;;5056237;28;20266;-81
2022/07/31 13:04:11;;;;;;;5.28;4.97;;;;;;;;;;5089608;28;20203;-85
2022/07/31 13:06:38;;;;;;;4.90;4.60;;;;;;;;;;5078530;28;20212;-81
2022/07/31 13:09:05;;;;;;;6.28;5.78;;;;;;;;;;5079847;28;20213;-81
2022/07/31 13:11:32;;;;;;;5.20;4.88;;;;;;;;;;5072846;28;20217;-80
2022/07/31 13:14:00;;;;;;;6.07;5.38;;;;;;;;;;5089381;28;20201;-81
2022/07/31 13:16:27;;;;;;;6.07;5.57;;;;;;;;;;5071086;28;20193;-82
2022/07/31 13:18:54;;;;;;;6.20;5.60;;;;;;;;;;5084894;28;20189;-83
2022/07/31 13:21:21;;;;;;;6.03;5.55;;;;;;;;;;5069614;28;20197;-80
2022/07/31 13:23:48;;;;;;;5.95;5.57;;;;;;;;;;5076632;28;20296;-80
2022/07/31 13:26:17;;;;;;;6.35;5.95;;;;;;;;;;5083129;28;20232;-83
2022/07/31 13:28:43;;;;;;;6.07;5.68;;;;;;;;;;5079942;28;20189;-84
2022/07/31 13:31:12;;;;;;;6.55;6.05;;;;;;;;;;5073670;28;20671;-83
2022/07/31 13:33:38;;;;;;;6.07;5.68;;;;;;;;;;5081857;28;20196;-81
2022/07/31 13:36:06;;;;;;;6.60;6.10;;;;;;;;;;5074619;28;20203;-84
2022/07/31 13:38:33;;;;;;;7.18;6.57;;;;;;;;;;5069597;28;20197;-83
2022/07/31 13:43:44;;;;;;;6.20;5.80;;;;;;;;;;5069466;28;20677;-84
2022/07/31 13:46:14;;;;;;;6.57;5.97;;;;;;;;;;5074210;28;20208;-86
2022/07/31 13:48:41;;;;;;;6.30;5.80;;;;;;;;;;5077401;28;20617;-82
2022/07/31 13:51:08;;;;;;;6.13;5.72;;;;;;;;;;5046286;28;20270;-82
2022/07/31 13:53:35;;;;;;;6.57;6.07;;;;;;;;;;5088277;28;20549;-82
2022/07/31 13:56:03;;;;;;;6.90;6.30;;;;;;;;;;5088643;28;20245;-80
2022/07/31 13:58:30;;;;;;;6.82;6.32;;;;;;;;;;5068298;28;20296;-81
2022/07/31 14:00:57;;;;;;;7.03;6.43;;;;;;;;;;5055989;28;20216;-82
2022/07/31 14:03:26;;;;;;;6.60;6.10;;;;;;;;;;5070713;28;20197;-82
2022/07/31 14:05:53;;;;;;;7.43;6.82;;;;;;;;;;5089515;28;20203;-81
2022/07/31 14:08:21;;;;;;;6.65;6.15;;;;;;;;;;5089541;28;20677;-81
2022/07/31 14:10:49;;;;;;;6.15;5.75;;;;;;;;;;5069869;28;20715;-82
2022/07/31 14:13:17;;;;;;;7.18;6.47;;;;;;;;;;5069608;28;20289;-81
2022/07/31 14:15:45;;;;;;;6.22;5.75;;;;;;;;;;5077100;28;20683;-82
2022/07/31 14:18:13;;;;;;;6.15;5.75;;;;;;;;;;5071913;28;22282;-81
2022/07/31 14:20:41;;;;;;;6.13;5.65;;;;;;;;;;5089810;28;20651;-81
2022/07/31 14:23:08;;;;;;;6.40;5.78;;;;;;;;;;5088776;28;20197;-81
2022/07/31 14:25:36;;;;;;;6.97;6.38;;;;;;;;;;5080893;28;20200;-81
2022/07/31 14:28:03;;;;;;;6.43;6.03;;;;;;;;;;5074080;28;20197;-81
2022/07/31 14:30:30;;;;;;;7.10;6.50;;;;;;;;;;5068625;28;20228;-81
2022/07/31 14:32:57;;;;;;;6.57;5.97;;;;;;;;;;5070332;28;20280;-81
2022/07/31 14:35:24;;;;;;;6.25;5.75;;;;;;;;;;5072697;28;20212;-81
2022/07/31 14:37:52;;;;;;;6.07;5.57;;;;;;;;;;5082654;28;20200;-82
2022/07/31 14:40:19;;;;;;;6.20;5.70;;;;;;;;;;5093483;28;20202;-81
2022/07/31 14:42:46;;;;;;;7.10;6.47;;;;;;;;;;5084611;28;20197;-81
2022/07/31 14:45:13;;;;;;;20.90;19.15;;;;;;;;;;5082344;28;20197;-81
2022/07/31 14:47:40;;;;;;;7.75;7.03;;;;;;;;;;5072772;28;20197;-81
2022/07/31 14:50:08;;;;;;;6.50;6.00;;;;;;;;;;5081871;28;20291;-87
2022/07/31 14:52:35;;;;;;;8.77;6.53;;;;;;;;;;5094329;28;20188;-88
2022/07/31 14:55:04;;;;;;;7.05;6.45;;;;;;;;;;5068397;28;20702;-87
2022/07/31 14:57:31;;;;;;;6.75;6.15;;;;;;;;;;5083126;28;20681;-87
2022/07/31 14:59:59;;;;;;;6.95;6.35;;;;;;;;;;5041978;28;20201;-86
2022/07/31 15:02:26;;;;;;;10.05;6.68;;;;;;;;;;5055800;28;20204;-87
2022/07/31 15:04:53;;;;;;;7.20;6.60;;;;;;;;;;5076863;28;20196;-87
2022/07/31 15:07:20;;;;;;;6.97;6.38;;;;;;;;;;5094761;28;20208;-87
2022/07/31 15:09:47;;;;;;;7.13;6.63;;;;;;;;;;5074730;28;20303;-87